»·PEaware :: N210AR KBUR-KSNA

N210AR :: KBUR-KSNA

FLIGHT INFORMATION

Flight Status: Arrived
Operator: Privately registered:
United States
More flights under this callsign
Pilot: Max S. (16657)
Aircraft: CESSNA 172 SKYHAWK
(C172)
More flights by this aircraft type
Origin: KBUR Bob Hope-Burbank
United States
Destination: KSNA John Wayne-Orange Co
United States
More flights between these airports :: More routes between these airports
Route:
File this flight plan on PilotEdge
Remarks:
Altitude:
(Current/Filed)
2,500ft
Speed:
(Current/Filed)
100kts
Departed: 20-May-20 08:25 AM
Arrived: 20-May-20 08:59 AM
Distance/Time
Traveled:
40nm/0:34
Distance/Time
To Go:
Arrived

Flight Plot

Page will automatically refresh every two minutes.


Map Options




Map Legend


Flown Route
Filed Route
Departure Airport
Arrival Airport
Navaid (VOR, NDB)
Fix

Horizontal Profiles

Position Reports

Time Latitude Longitude Heading Altitude Ground
Speed
20-May-20 08:05 34.196339 -118.367564 358 725ft 0kts
20-May-20 08:06 34.196339 -118.367564 358 725ft 0kts
20-May-20 08:07 34.196339 -118.367564 358 725ft 0kts
20-May-20 08:08 34.196339 -118.367564 358 725ft 0kts
20-May-20 08:09 34.196339 -118.367564 358 725ft 0kts
20-May-20 08:10 34.196339 -118.367564 358 725ft 0kts
20-May-20 08:11 34.196339 -118.367564 358 725ft 0kts
20-May-20 08:12 34.196339 -118.367564 358 725ft 0kts
20-May-20 08:13 34.196339 -118.367564 358 725ft 0kts
20-May-20 08:14 34.196339 -118.367564 358 725ft 0kts
20-May-20 08:15 34.196339 -118.367564 358 725ft 0kts
20-May-20 08:16 34.196339 -118.367564 358 725ft 0kts
20-May-20 08:17 34.196339 -118.367564 358 725ft 0kts
20-May-20 08:18 34.196339 -118.367564 358 725ft 0kts
20-May-20 08:19 34.196466 -118.367014 91 723ft 8kts
20-May-20 08:20 34.197018 -118.368836 312 728ft 6kts
20-May-20 08:21 34.197034 -118.368855 313 728ft 0kts
20-May-20 08:22 34.197034 -118.368855 313 728ft 0kts
20-May-20 08:23 34.197034 -118.368855 313 728ft 0kts
20-May-20 08:24 34.197873 -118.366776 95 728ft 50kts
20-May-20 08:25 34.194771 -118.343685 168 1455ft 79kts
20-May-20 08:26 34.187243 -118.366200 267 2284ft 84kts
20-May-20 08:27 34.173420 -118.385705 187 2647ft 105kts
20-May-20 08:28 34.145463 -118.389630 202 2481ft 116kts
20-May-20 08:29 34.115117 -118.406902 202 2415ft 119kts
20-May-20 08:30 34.085495 -118.421257 201 2416ft 113kts
20-May-20 08:31 34.056210 -118.435297 201 2396ft 113kts
20-May-20 08:32 34.027072 -118.449252 201 2396ft 113kts
20-May-20 08:33 33.998113 -118.461064 163 2397ft 112kts
20-May-20 08:34 33.975555 -118.441666 149 2397ft 110kts
20-May-20 08:35 33.963091 -118.416899 153 2363ft 113kts
20-May-20 08:36 33.939622 -118.398138 147 2367ft 113kts
20-May-20 08:37 33.914394 -118.376446 142 2386ft 113kts
20-May-20 08:38 33.888942 -118.354174 147 2395ft 112kts
20-May-20 08:39 33.856743 -118.339569 164 2143ft 124kts
20-May-20 08:40 33.830862 -118.326252 151 2528ft 96kts
20-May-20 08:41 33.810366 -118.304299 127 2443ft 114kts
20-May-20 08:42 33.793006 -118.271293 121 2372ft 126kts
20-May-20 08:43 33.775222 -118.237042 122 2369ft 118kts
20-May-20 08:44 33.757792 -118.203752 122 2369ft 117kts
20-May-20 08:45 33.740414 -118.170604 122 2369ft 117kts
20-May-20 08:46 33.723012 -118.137441 122 2369ft 117kts
20-May-20 08:47 33.705559 -118.104214 122 2369ft 117kts
20-May-20 08:48 33.688126 -118.071053 122 2369ft 117kts
20-May-20 08:49 33.670741 -118.038008 122 2369ft 117kts
20-May-20 08:50 33.653359 -118.011792 137 2241ft 95kts
20-May-20 08:51 33.648786 -117.983666 69 2045ft 91kts
20-May-20 08:52 33.653335 -117.953565 78 1833ft 91kts
20-May-20 08:53 33.659041 -117.923359 65 1609ft 92kts
20-May-20 08:54 33.666332 -117.893381 81 1132ft 97kts
20-May-20 08:55 33.682633 -117.879300 23 962ft 69kts
20-May-20 08:56 33.700007 -117.868285 88 659ft 68kts
20-May-20 08:57 33.685191 -117.862911 204 282ft 62kts
20-May-20 08:58 33.673470 -117.870258 208 60ft 17kts
20-May-20 08:59 33.669294 -117.871801 134 60ft 11kts
20-May-20 09:00 33.669247 -117.871743 133 60ft 0kts
20-May-20 09:01 33.668111 -117.871218 129 60ft 7kts
20-May-20 09:02 33.667792 -117.870585 219 60ft 0kts
20-May-20 09:03 33.667792 -117.870585 219 60ft 0kts

Navigation Log

Ident Type
Flight plan parsing failed, navigation log unavailable